Time;durP1;ratioP1;P1;durP2;ratioP2;P2;SDS_P1;SDS_P2;PMS_P1;PMS_P2;Temp;Humidity;BMP_temperature;BMP_pressure;BME280_temperature;BME280_humidity;BME280_pressure;Samples;Min_cycle;Max_cycle;Signal;HPM_P1;HPM_P2
2022/01/13 00:04:06;;;;;;;0.00;0.00;;;;;;;4.00;100.00;103688.91;10450246;28;20503;-93
2022/01/13 00:09:07;;;;;;;0.00;0.00;;;;;;;3.94;100.00;103681.19;10444659;28;20017;-92
2022/01/13 00:24:14;;;;;;;0.00;0.00;;;;;;;4.00;100.00;103686.28;10446276;28;20484;-93
2022/01/13 00:29:20;;;;;;;0.00;0.00;;;;;;;4.08;100.00;103702.75;10447605;28;20021;-93
2022/01/13 00:34:21;;;;;;;0.00;0.00;;;;;;;4.04;100.00;103681.78;10451320;28;20088;-92
2022/01/13 00:39:21;;;;;;;0.00;0.00;;;;;;;4.11;100.00;103698.28;10441673;28;20030;-92
2022/01/13 00:44:22;;;;;;;0.00;0.00;;;;;;;4.15;100.00;103699.91;10441624;28;20053;-92
2022/01/13 00:49:22;;;;;;;0.00;0.00;;;;;;;4.09;100.00;103682.50;10439031;28;20017;-92
2022/01/13 00:54:24;;;;;;;0.00;0.00;;;;;;;4.13;100.00;103685.91;10436089;28;20021;-93
2022/01/13 00:59:24;;;;;;;0.00;0.00;;;;;;;4.23;100.00;103705.81;10442084;28;20024;-92
2022/01/13 01:04:25;;;;;;;0.00;0.00;;;;;;;4.17;100.00;103692.84;10442918;28;20485;-93
2022/01/13 01:09:49;;;;;;;0.00;0.00;;;;;;;4.27;100.00;103705.66;10456722;28;20784;-92
2022/01/13 01:14:54;;;;;;;0.00;0.00;;;;;;;4.27;100.00;103694.25;10438670;28;20493;-93
2022/01/13 01:19:54;;;;;;;0.00;0.00;;;;;;;4.25;100.00;103699.59;10443545;28;20025;-93
2022/01/13 01:25:31;;;;;;;0.00;0.00;;;;;;;4.25;100.00;103688.19;10440268;28;20082;-93
2022/01/13 01:30:39;;;;;;;0.00;0.00;;;;;;;4.36;100.00;103690.47;10446349;28;20025;-92
2022/01/13 01:35:40;;;;;;;0.00;0.00;;;;;;;4.36;100.00;103687.81;10436391;28;20377;-92
2022/01/13 01:40:40;;;;;;;0.00;0.00;;;;;;;4.28;100.00;103670.47;10439021;28;20093;-92
2022/01/13 01:45:46;;;;;;;0.00;0.00;;;;;;;4.29;100.00;103672.19;10435757;28;20013;-92
2022/01/13 01:50:55;;;;;;;0.00;0.00;;;;;;;4.35;100.00;103671.13;10438351;28;20271;-92
2022/01/13 01:55:56;;;;;;;0.00;0.00;;;;;;;4.26;100.00;103655.59;10451415;28;20108;-93
2022/01/13 02:00:56;;;;;;;0.00;0.00;;;;;;;4.30;100.00;103657.22;10437942;28;20040;-93
2022/01/13 02:05:57;;;;;;;0.00;0.00;;;;;;;4.34;100.00;103656.22;10449358;28;20444;-94
2022/01/13 02:10:58;;;;;;;0.00;0.00;;;;;;;4.34;100.00;103636.91;10464092;28;20051;-93
2022/01/13 02:16:04;;;;;;;0.00;0.00;;;;;;;4.36;100.00;103643.81;10440918;28;20044;-92
2022/01/13 02:21:05;;;;;;;0.00;0.00;;;;;;;4.37;100.00;103642.94;10457318;28;20063;-93
2022/01/13 02:26:09;;;;;;;0.00;0.00;;;;;;;4.37;100.00;103637.66;10455577;28;20017;-93
2022/01/13 02:31:10;;;;;;;0.00;0.00;;;;;;;4.37;100.00;103627.09;10452067;28;20044;-93
2022/01/13 02:36:14;;;;;;;0.00;0.00;;;;;;;4.40;100.00;103627.00;10445217;28;20082;-93
2022/01/13 02:41:15;;;;;;;0.00;0.00;;;;;;;4.34;100.00;103614.00;10442899;28;20024;-93
2022/01/13 02:51:38;;;;;;;0.00;0.00;;;;;;;4.51;100.00;103639.84;10383223;23;20516;-68
2022/01/13 02:56:39;;;;;;;0.00;0.00;;;;;;;4.52;100.00;103629.22;10346987;28;20025;-67
2022/01/13 03:01:41;;;;;;;0.00;0.00;;;;;;;4.54;100.00;103618.63;10361486;28;20528;-67
2022/01/13 03:06:41;;;;;;;0.00;0.00;;;;;;;4.56;100.00;103626.47;10371664;28;20030;-67
2022/01/13 03:11:44;;;;;;;0.00;0.00;;;;;;;4.58;100.00;103625.50;10369968;28;20028;-67
2022/01/13 03:16:45;;;;;;;0.00;0.00;;;;;;;4.58;100.00;103616.72;10383465;22;20044;-69
2022/01/13 03:21:45;;;;;;;0.00;0.00;;;;;;;4.59;100.00;103627.22;10368263;28;20048;-69
2022/01/13 03:26:49;;;;;;;0.00;0.00;;;;;;;4.60;100.00;103625.47;10371235;28;20029;-69
2022/01/13 03:31:49;;;;;;;0.00;0.00;;;;;;;4.60;100.00;103634.25;10368192;28;20265;-69
2022/01/13 03:36:50;;;;;;;0.00;0.00;;;;;;;4.62;100.00;103627.13;10370704;28;20881;-69
2022/01/13 03:41:50;;;;;;;0.00;0.00;;;;;;;4.63;100.00;103617.44;10370671;28;20029;-69
2022/01/13 03:46:50;;;;;;;0.00;0.00;;;;;;;4.63;100.00;103628.88;10370605;28;20045;-69
2022/01/13 03:52:02;;;;;;;0.00;0.00;;;;;;;4.64;100.00;103625.31;10369866;28;20288;-69
2022/01/13 03:57:36;;;;;;;0.00;0.00;;;;;;;4.63;100.00;103612.16;10370258;28;20034;-69
2022/01/13 04:02:36;;;;;;;0.00;0.00;;;;;;;4.63;100.00;103613.03;10366063;28;20104;-69
2022/01/13 04:07:37;;;;;;;0.00;0.00;;;;;;;4.63;100.00;103594.53;10369997;28;20036;-69
2022/01/13 04:12:37;;;;;;;0.00;0.00;;;;;;;4.64;100.00;103592.75;10369669;28;20579;-70
2022/01/13 04:17:38;;;;;;;0.00;0.00;;;;;;;4.65;100.00;103600.63;10368140;28;20032;-70
2022/01/13 04:22:39;;;;;;;0.00;0.00;;;;;;;4.66;100.00;103598.88;10369158;28;20385;-69
2022/01/13 04:27:43;;;;;;;0.00;0.00;;;;;;;4.66;100.00;103599.72;10369223;28;20101;-70
2022/01/13 04:32:43;;;;;;;0.00;0.00;;;;;;;4.67;100.00;103595.28;10366080;28;20048;-70
2022/01/13 04:37:44;;;;;;;0.00;0.00;;;;;;;4.68;100.00;103583.81;10367118;28;20499;-69
2022/01/13 04:42:45;;;;;;;0.00;0.00;;;;;;;4.69;100.00;103581.13;10369027;28;20358;-69
2022/01/13 04:47:47;;;;;;;0.00;0.00;;;;;;;4.69;100.00;103591.69;10366714;28;20284;-69
2022/01/13 04:52:47;;;;;;;0.00;0.00;;;;;;;4.71;100.00;103588.97;10364615;28;20034;-70
2022/01/13 04:57:48;;;;;;;0.00;0.00;;;;;;;4.72;100.00;103585.44;10367475;28;20030;-69
2022/01/13 05:02:48;;;;;;;0.00;0.00;;;;;;;4.75;100.00;103591.47;10316936;28;20026;-69
2022/01/13 05:07:49;;;;;;;0.00;0.00;;;;;;;4.78;100.00;103579.94;10341807;28;20026;-69
2022/01/13 05:12:54;;;;;;;0.00;0.00;;;;;;;4.80;100.00;103577.22;10358803;28;20053;-69
2022/01/13 05:18:12;;;;;;;0.10;0.10;;;;;;;4.83;100.00;103562.16;10359201;28;20076;-69
2022/01/13 05:23:13;;;;;;;0.00;0.00;;;;;;;4.84;100.00;103553.31;10359157;28;20089;-69
2022/01/13 05:28:14;;;;;;;0.00;0.00;;;;;;;4.87;100.00;103557.63;10357157;28;20026;-69
2022/01/13 05:33:15;;;;;;;0.00;0.00;;;;;;;4.89;100.00;103551.38;10361855;28;20264;-69
2022/01/13 05:38:15;;;;;;;0.00;0.00;;;;;;;4.94;100.00;103559.13;10352526;28;20033;-69
2022/01/13 05:43:15;;;;;;;0.00;0.00;;;;;;;4.97;100.00;103554.59;10357128;28;20026;-69
2022/01/13 05:48:16;;;;;;;0.00;0.00;;;;;;;4.99;100.00;103547.47;10355713;28;20016;-69
2022/01/13 05:53:16;;;;;;;0.00;0.00;;;;;;;5.01;100.00;103543.94;10361625;28;20026;-69
2022/01/13 05:58:16;;;;;;;0.00;0.00;;;;;;;4.99;100.00;103551.91;10358767;28;20392;-69
2022/01/13 06:03:17;;;;;;;0.00;0.00;;;;;;;5.03;100.00;103557.91;10361975;28;20014;-69
2022/01/13 06:08:17;;;;;;;0.00;0.00;;;;;;;5.02;100.00;103553.56;10356595;28;20049;-69
2022/01/13 06:13:17;;;;;;;0.00;0.00;;;;;;;5.05;100.00;103548.16;10349928;28;20265;-69
2022/01/13 06:18:18;;;;;;;0.00;0.00;;;;;;;5.05;100.00;103551.66;10362652;28;20084;-69
2022/01/13 06:23:18;;;;;;;0.00;0.00;;;;;;;5.05;100.00;103541.09;10362886;28;20423;-69
2022/01/13 06:28:18;;;;;;;0.00;0.00;;;;;;;5.05;100.00;103554.31;10359539;28;20022;-68
2022/01/13 06:33:19;;;;;;;0.00;0.00;;;;;;;5.04;100.00;103539.38;10358090;28;20293;-69
2022/01/13 06:38:20;;;;;;;0.00;0.00;;;;;;;5.04;100.00;103549.94;10358383;28;20024;-69
2022/01/13 06:43:20;;;;;;;0.00;0.00;;;;;;;5.04;100.00;103554.38;10357131;28;20076;-69
2022/01/13 06:48:20;;;;;;;0.00;0.00;;;;;;;5.02;100.00;103565.00;10357799;28;20396;-69
2022/01/13 06:53:21;;;;;;;0.00;0.00;;;;;;;5.01;100.00;103559.78;10364739;28;20036;-69
2022/01/13 06:58:22;;;;;;;0.00;0.00;;;;;;;4.99;100.00;103563.31;10362778;28;20024;-69
2022/01/13 07:03:22;;;;;;;0.00;0.00;;;;;;;4.98;100.00;103572.16;10365729;28;20461;-69
2022/01/13 07:08:22;;;;;;;0.00;0.00;;;;;;;4.97;100.00;103574.84;10359432;28;20018;-69
2022/01/13 07:13:23;;;;;;;0.10;0.10;;;;;;;4.96;100.00;103581.91;10366066;28;20022;-69
2022/01/13 07:18:24;;;;;;;0.00;0.00;;;;;;;4.96;100.00;103596.91;10352152;28;20501;-69
2022/01/13 07:23:24;;;;;;;0.00;0.00;;;;;;;4.92;100.00;103588.25;10365962;28;20045;-69
2022/01/13 07:28:24;;;;;;;0.00;0.00;;;;;;;4.92;100.00;103590.03;10360696;28;20042;-69
2022/01/13 07:33:25;;;;;;;0.00;0.00;;;;;;;4.90;100.00;103587.44;10368623;28;20385;-69
2022/01/13 07:38:25;;;;;;;0.00;0.00;;;;;;;4.88;100.00;103594.53;10365675;28;20024;-69
2022/01/13 07:43:26;;;;;;;0.00;0.00;;;;;;;4.83;100.00;103599.13;10367352;28;20022;-69
2022/01/13 07:48:27;;;;;;;0.00;0.00;;;;;;;4.85;100.00;103617.56;10354869;28;20397;-70
2022/01/13 07:53:27;;;;;;;0.00;0.00;;;;;;;4.82;100.00;103618.53;10353321;28;20533;-69
2022/01/13 07:58:28;;;;;;;0.00;0.00;;;;;;;4.78;100.00;103630.13;10356984;28;20023;-69
2022/01/13 08:03:28;;;;;;;0.00;0.00;;;;;;;4.72;100.00;103628.56;10362112;28;20030;-69
2022/01/13 08:08:28;;;;;;;0.00;0.00;;;;;;;4.70;100.00;103643.56;10359163;28;20026;-69
2022/01/13 08:13:28;;;;;;;0.00;0.00;;;;;;;4.68;100.00;103658.63;10363684;28;20038;-69
2022/01/13 08:23:49;;;;;;;0.00;0.00;;;;;;;4.62;100.00;103652.66;10346320;28;20489;-69
2022/01/13 08:28:50;;;;;;;0.00;0.00;;;;;;;4.61;100.00;103658.88;10355137;28;20018;-69
2022/01/13 08:33:51;;;;;;;0.00;0.00;;;;;;;4.59;100.00;103658.03;10363144;28;20022;-69
2022/01/13 08:38:51;;;;;;;0.00;0.00;;;;;;;4.60;100.00;103665.06;10363638;28;20022;-69
2022/01/13 08:43:53;;;;;;;0.00;0.00;;;;;;;4.59;100.00;103652.78;10365091;28;20022;-69
2022/01/13 08:48:53;;;;;;;0.00;0.00;;;;;;;4.63;100.00;103649.13;10360057;28;20470;-69
2022/01/13 08:53:54;;;;;;;0.00;0.00;;;;;;;4.64;100.00;103646.41;10363003;28;20022;-69
2022/01/13 08:58:55;;;;;;;0.00;0.00;;;;;;;4.66;100.00;103638.47;10350953;28;20342;-69
2022/01/13 09:03:55;;;;;;;0.00;0.00;;;;;;;4.71;100.00;103641.78;10363605;28;20531;-69
2022/01/13 09:08:55;;;;;;;0.00;0.00;;;;;;;4.76;100.00;103640.72;10360186;28;20021;-69
2022/01/13 09:13:57;;;;;;;0.00;0.00;;;;;;;4.81;100.00;103615.94;10359930;28;20543;-69
2022/01/13 09:19:07;;;;;;;0.00;0.00;;;;;;;4.87;100.00;103621.00;10373126;22;20495;-67
2022/01/13 09:24:15;;;;;;;0.00;0.00;;;;;;;4.93;100.00;103610.22;10343193;28;20036;-67
2022/01/13 09:29:16;;;;;;;0.00;0.00;;;;;;;4.94;100.00;103601.38;10328900;28;20026;-67
2022/01/13 09:34:16;;;;;;;0.00;0.00;;;;;;;4.92;100.00;103590.03;10344558;28;20473;-67
2022/01/13 09:39:16;;;;;;;0.00;0.00;;;;;;;4.90;100.00;103587.44;10326947;28;20023;-67
2022/01/13 09:44:17;;;;;;;0.00;0.00;;;;;;;4.88;100.00;103581.31;10327113;28;20022;-67
2022/01/13 09:49:17;;;;;;;0.00;0.00;;;;;;;4.89;100.00;103580.44;10328557;28;20018;-67
2022/01/13 09:54:18;;;;;;;0.00;0.00;;;;;;;4.92;100.00;103585.59;10330880;28;20022;-67
2022/01/13 09:59:18;;;;;;;0.00;0.00;;;;;;;4.92;100.00;103571.53;10332888;28;20282;-67
2022/01/13 10:04:19;;;;;;;0.00;0.00;;;;;;;4.92;100.00;103575.03;10336174;28;20029;-67
2022/01/13 10:09:19;;;;;;;0.00;0.00;;;;;;;4.92;100.00;103576.81;10331861;28;20054;-67
2022/01/13 10:19:29;;;;;;;0.00;0.00;;;;;;;4.97;100.00;103581.03;10338193;28;20022;-67
2022/01/13 10:24:31;;;;;;;0.00;0.00;;;;;;;4.98;100.00;103585.38;10341512;28;20033;-67
2022/01/13 10:29:39;;;;;;;0.00;0.00;;;;;;;5.04;100.00;103584.28;10345985;28;20022;-67
2022/01/13 10:34:42;;;;;;;0.00;0.00;;;;;;;5.07;100.00;103585.97;10342059;28;20058;-67
2022/01/13 10:39:42;;;;;;;0.00;0.00;;;;;;;5.10;100.00;103580.56;10338463;28;20029;-67
2022/01/13 10:44:53;;;;;;;0.00;0.00;;;;;;;5.10;100.00;103570.84;10341377;28;20507;-67
2022/01/13 10:49:59;;;;;;;0.00;0.00;;;;;;;5.15;100.00;103568.91;10339919;28;20053;-67
2022/01/13 10:55:12;;;;;;;0.00;0.00;;;;;;;5.15;100.00;103578.63;10337654;28;20100;-67
2022/01/13 11:00:24;;;;;;;0.00;0.00;;;;;;;5.17;100.00;103566.19;10332207;28;20077;-67
2022/01/13 11:05:26;;;;;;;0.00;0.00;;;;;;;5.22;100.00;103565.13;10333793;28;20409;-67
2022/01/13 11:10:26;;;;;;;0.00;0.00;;;;;;;5.24;100.00;103559.78;10339729;28;20019;-67
2022/01/13 11:15:27;;;;;;;0.00;0.00;;;;;;;5.31;100.00;103553.34;10338036;28;20014;-67
2022/01/13 11:20:29;;;;;;;0.00;0.00;;;;;;;5.35;100.00;103552.31;10330178;28;20065;-66
2022/01/13 11:25:29;;;;;;;0.00;0.00;;;;;;;5.40;100.00;103550.34;10332027;28;20022;-65
2022/01/13 11:30:30;;;;;;;0.00;0.00;;;;;;;5.45;100.00;103544.88;10328124;28;20022;-66
2022/01/13 11:35:43;;;;;;;0.00;0.00;;;;;;;5.48;100.00;103559.78;10340592;28;20030;-66
2022/01/13 11:40:45;;;;;;;0.00;0.00;;;;;;;5.50;100.00;103556.16;10330110;28;20033;-66
2022/01/13 11:45:47;;;;;;;0.03;0.03;;;;;;;5.49;100.00;103556.19;10334901;28;20026;-66
2022/01/13 11:51:13;;;;;;;0.10;0.10;;;;;;;5.48;100.00;103560.63;10340688;28;20473;-66
2022/01/13 11:56:14;;;;;;;0.00;0.00;;;;;;;5.49;100.00;103564.97;10333272;28;20523;-66
2022/01/13 12:01:20;;;;;;;0.08;0.08;;;;;;;5.49;100.00;103556.19;10332178;28;20109;-66
2022/01/13 12:06:35;;;;;;;0.00;0.00;;;;;;;5.49;100.00;103550.91;10333537;28;20500;-66
2022/01/13 12:11:38;;;;;;;0.00;0.00;;;;;;;5.51;100.00;103555.22;10333436;28;20792;-66
2022/01/13 12:17:24;;;;;;;0.00;0.00;;;;;;;5.54;100.00;103544.53;10333142;28;20601;-66
2022/01/13 12:22:38;;;;;;;0.00;0.00;;;;;;;5.57;100.00;103538.25;10332832;28;20227;-66
2022/01/13 12:27:38;;;;;;;0.00;0.00;;;;;;;5.58;100.00;103532.03;10318849;28;20180;-66
2022/01/13 12:32:43;;;;;;;0.00;0.00;;;;;;;5.62;100.00;103525.72;10337202;28;20113;-66
2022/01/13 12:37:58;;;;;;;0.00;0.00;;;;;;;5.63;100.00;103525.66;10333365;28;20029;-66
2022/01/13 12:48:36;;;;;;;0.08;0.08;;;;;;;5.71;100.00;103522.72;10335574;28;20030;-66
2022/01/13 12:53:37;;;;;;;0.00;0.00;;;;;;;5.74;100.00;103513.78;10329956;28;20023;-66
2022/01/13 12:58:40;;;;;;;0.10;0.10;;;;;;;5.78;100.00;103505.66;10329210;28;20022;-66
2022/01/13 13:03:41;;;;;;;0.00;0.00;;;;;;;5.81;100.00;103487.00;10323036;28;20464;-66
2022/01/13 13:08:44;;;;;;;0.00;0.00;;;;;;;5.87;100.00;103486.75;10325679;28;20081;-66
2022/01/13 13:13:49;;;;;;;0.00;0.00;;;;;;;5.94;100.00;103475.97;10326622;28;20030;-66
2022/01/13 13:18:52;;;;;;;0.00;0.00;;;;;;;6.02;100.00;103477.38;10338388;28;20034;-66
2022/01/13 13:23:53;;;;;;;0.00;0.00;;;;;;;6.08;100.00;103478.91;10339083;28;20058;-66
2022/01/13 13:28:54;;;;;;;0.00;0.00;;;;;;;6.10;100.00;103475.25;10325372;28;20030;-66
2022/01/13 13:34:00;;;;;;;0.00;0.00;;;;;;;6.16;100.00;103483.84;10338480;28;20029;-66
2022/01/13 13:39:07;;;;;;;0.00;0.00;;;;;;;6.17;100.00;103481.16;10326224;28;20052;-66
2022/01/13 13:44:11;;;;;;;0.00;0.00;;;;;;;6.19;100.00;103474.00;10327969;28;20042;-66
2022/01/13 13:49:12;;;;;;;0.00;0.00;;;;;;;6.24;100.00;103469.38;10332147;28;20415;-66
2022/01/13 13:54:16;;;;;;;0.00;0.00;;;;;;;6.26;100.00;103470.16;10348246;28;20075;-66
2022/01/13 13:59:30;;;;;;;0.00;0.00;;;;;;;6.30;100.00;103465.59;10333738;28;20018;-66
2022/01/13 14:04:38;;;;;;;0.00;0.00;;;;;;;6.33;100.00;103461.03;10341034;28;20486;-66
2022/01/13 14:09:40;;;;;;;0.00;0.00;;;;;;;6.33;100.00;103465.47;10343925;28;20537;-66
2022/01/13 14:14:41;;;;;;;0.00;0.00;;;;;;;6.33;100.00;103476.91;10341606;28;20022;-66
2022/01/13 14:20:05;;;;;;;0.00;0.00;;;;;;;6.36;100.00;103475.91;10334609;28;20022;-66
2022/01/13 14:25:14;;;;;;;0.00;0.00;;;;;;;6.38;100.00;103473.22;10337121;28;20054;-66
2022/01/13 14:30:26;;;;;;;0.03;0.03;;;;;;;6.39;100.00;103480.22;10335444;28;20030;-66
2022/01/13 14:35:27;;;;;;;0.00;0.00;;;;;;;6.37;100.00;103472.38;10340331;28;20022;-66
2022/01/13 14:40:29;;;;;;;0.08;0.08;;;;;;;6.35;100.00;103477.72;10341003;28;20026;-66
2022/01/13 14:45:29;;;;;;;0.00;0.00;;;;;;;6.34;100.00;103468.06;10332797;28;20049;-66
2022/01/13 14:50:30;;;;;;;0.00;0.00;;;;;;;6.32;100.00;103472.56;10349381;28;20469;-66
2022/01/13 14:55:30;;;;;;;0.00;0.00;;;;;;;6.31;100.00;103468.19;10334389;28;20293;-66
2022/01/13 15:00:30;;;;;;;0.00;0.00;;;;;;;6.32;100.00;103463.75;10332873;28;20030;-65
2022/01/13 15:05:30;;;;;;;0.00;0.00;;;;;;;6.29;100.00;103454.16;10343553;28;20026;-66
2022/01/13 15:10:32;;;;;;;0.00;0.00;;;;;;;6.26;100.00;103456.94;10333866;28;20394;-66
2022/01/13 15:15:32;;;;;;;0.00;0.00;;;;;;;6.23;100.00;103459.72;10334790;28;20026;-66
2022/01/13 15:20:32;;;;;;;0.00;0.00;;;;;;;6.22;100.00;103465.91;10334543;28;20030;-66
2022/01/13 15:25:33;;;;;;;0.00;0.00;;;;;;;6.20;100.00;103456.34;10366407;22;20053;-66
2022/01/13 15:30:34;;;;;;;0.00;0.00;;;;;;;6.15;100.00;103456.53;10374068;28;20041;-65
2022/01/13 15:35:34;;;;;;;0.10;0.10;;;;;;;6.13;100.00;103453.09;10332975;28;20042;-65
2022/01/13 15:40:34;;;;;;;0.00;0.00;;;;;;;6.09;100.00;103468.25;10336979;28;20475;-66
2022/01/13 15:45:35;;;;;;;0.00;0.00;;;;;;;6.08;100.00;103469.19;10332750;28;20437;-66
2022/01/13 15:50:36;;;;;;;0.00;0.00;;;;;;;6.06;100.00;103471.03;10330158;28;20748;-66
2022/01/13 15:55:37;;;;;;;0.00;0.00;;;;;;;6.06;100.00;103478.09;10330009;28;20027;-66
2022/01/13 16:00:38;;;;;;;0.00;0.00;;;;;;;6.06;100.00;103476.31;10329375;28;20065;-66
2022/01/13 16:05:38;;;;;;;0.10;0.10;;;;;;;6.02;100.00;103482.66;10329587;28;20018;-65
2022/01/13 16:10:39;;;;;;;0.00;0.00;;;;;;;6.01;100.00;103496.81;10329135;28;20018;-66
2022/01/13 16:15:39;;;;;;;0.00;0.00;;;;;;;5.98;100.00;103483.72;10334028;28;20031;-65
2022/01/13 16:20:39;;;;;;;0.00;0.00;;;;;;;5.95;100.00;103478.53;10334454;28;20021;-65
2022/01/13 16:25:40;;;;;;;0.00;0.00;;;;;;;5.94;100.00;103486.56;10368933;28;20018;-65
2022/01/13 16:30:40;;;;;;;0.00;0.00;;;;;;;5.92;100.00;103489.22;10347239;28;20121;-66
2022/01/13 16:35:41;;;;;;;0.03;0.03;;;;;;;5.90;100.00;103478.72;10328405;28;20470;-66
2022/01/13 16:40:41;;;;;;;0.00;0.00;;;;;;;5.89;100.00;103470.84;10327192;28;20092;-66
2022/01/13 16:45:43;;;;;;;0.00;0.00;;;;;;;5.89;100.00;103482.28;10328166;28;20229;-66
2022/01/13 16:50:44;;;;;;;0.00;0.00;;;;;;;5.89;100.00;103469.03;10327473;28;20109;-65
2022/01/13 16:55:49;;;;;;;0.00;0.00;;;;;;;5.89;100.00;103468.19;10360085;28;20105;-66
2022/01/13 17:00:50;;;;;;;0.00;0.00;;;;;;;5.90;100.00;103456.69;10344712;28;20030;-66
2022/01/13 17:05:51;;;;;;;0.00;0.00;;;;;;;5.89;100.00;103460.25;10327278;28;20018;-66
2022/01/13 17:10:51;;;;;;;0.00;0.00;;;;;;;5.90;100.00;103451.38;10327193;28;20037;-66
2022/01/13 17:15:52;;;;;;;0.00;0.00;;;;;;;5.89;100.00;103445.25;10327212;28;20285;-66
2022/01/13 17:20:52;;;;;;;0.00;0.00;;;;;;;5.92;100.00;103427.53;10327097;28;20018;-66
2022/01/13 17:25:53;;;;;;;0.00;0.00;;;;;;;5.90;100.00;103439.03;10325428;28;20100;-66
2022/01/13 17:30:53;;;;;;;0.00;0.00;;;;;;;5.90;100.00;103423.16;10334283;28;20491;-66
2022/01/13 17:35:56;;;;;;;0.05;0.05;;;;;;;5.89;100.00;103413.50;10326797;28;20027;-66
2022/01/13 17:40:56;;;;;;;0.00;0.00;;;;;;;5.91;100.00;103410.78;10326257;28;20030;-66
2022/01/13 17:45:57;;;;;;;0.00;0.00;;;;;;;5.92;100.00;103406.38;10366015;28;20033;-66
2022/01/13 17:50:57;;;;;;;0.00;0.00;;;;;;;5.92;100.00;103409.84;10366415;28;20104;-66
2022/01/13 17:55:58;;;;;;;0.00;0.00;;;;;;;5.89;100.00;103402.91;10366664;28;20018;-66
2022/01/13 18:00:58;;;;;;;0.00;0.00;;;;;;;5.90;100.00;103396.72;10342479;28;20767;-66
2022/01/13 18:05:59;;;;;;;0.00;0.00;;;;;;;5.93;100.00;103408.06;10334464;28;20031;-66
2022/01/13 18:11:00;;;;;;;0.00;0.00;;;;;;;5.93;100.00;103413.34;10324927;28;20109;-66
2022/01/13 18:16:00;;;;;;;0.00;0.00;;;;;;;5.93;100.00;103405.41;10360211;28;20045;-66
2022/01/13 18:21:01;;;;;;;0.00;0.00;;;;;;;5.93;100.00;103410.72;10317402;28;20026;-66
2022/01/13 18:26:01;;;;;;;0.00;0.00;;;;;;;5.91;100.00;103410.78;10325745;28;20025;-66
2022/01/13 18:31:02;;;;;;;0.00;0.00;;;;;;;5.90;100.00;103414.34;10323104;28;20038;-66
2022/01/13 18:36:02;;;;;;;0.00;0.00;;;;;;;5.90;100.00;103424.94;10327926;28;20026;-66
2022/01/13 18:41:03;;;;;;;0.00;0.00;;;;;;;5.89;100.00;103425.88;10332625;28;20037;-66
2022/01/13 18:46:08;;;;;;;0.00;0.00;;;;;;;5.89;100.00;103417.94;10359792;28;20033;-66
2022/01/13 18:51:09;;;;;;;0.00;0.00;;;;;;;5.89;100.00;103405.56;10372478;28;20145;-66
2022/01/13 18:56:10;;;;;;;0.00;0.00;;;;;;;5.88;100.00;103409.13;10337541;28;20450;-66
2022/01/13 19:01:11;;;;;;;0.00;0.00;;;;;;;5.90;100.00;103409.06;10330840;28;20297;-66
2022/01/13 19:06:11;;;;;;;0.00;0.00;;;;;;;5.90;100.00;103396.72;10329342;28;20481;-66
2022/01/13 19:11:11;;;;;;;0.00;0.00;;;;;;;5.92;100.00;103390.50;10331714;28;20022;-66
2022/01/13 19:16:12;;;;;;;0.00;0.00;;;;;;;5.93;100.00;103389.56;10331652;28;20277;-66
2022/01/13 19:21:12;;;;;;;0.00;0.00;;;;;;;5.93;100.00;103393.09;10361758;28;20021;-66
2022/01/13 19:26:13;;;;;;;0.00;0.00;;;;;;;5.93;100.00;103397.50;10371660;28;20503;-66
2022/01/13 19:31:14;;;;;;;0.03;0.03;;;;;;;5.92;100.00;103406.38;10370211;28;20049;-66
2022/01/13 19:36:14;;;;;;;0.00;0.00;;;;;;;5.93;100.00;103393.09;10331058;28;20434;-67
2022/01/13 19:41:16;;;;;;;0.00;0.00;;;;;;;5.94;100.00;103384.25;10351063;28;20479;-66
2022/01/13 19:46:16;;;;;;;0.03;0.03;;;;;;;5.94;100.00;103380.75;10371391;28;20018;-66
2022/01/13 19:51:17;;;;;;;0.00;0.00;;;;;;;5.90;100.00;103367.63;10371990;28;20562;-66
2022/01/13 19:56:20;;;;;;;0.00;0.00;;;;;;;5.90;100.00;103370.25;10360983;28;20030;-66
2022/01/13 20:01:20;;;;;;;0.00;0.00;;;;;;;5.90;100.00;103372.03;10369350;28;20207;-66
2022/01/13 20:06:20;;;;;;;0.00;0.00;;;;;;;5.87;100.00;103365.06;10332835;28;20481;-66
2022/01/13 20:11:20;;;;;;;0.00;0.00;;;;;;;5.87;100.00;103373.00;10327486;28;20101;-66
2022/01/13 20:16:21;;;;;;;0.00;0.00;;;;;;;5.84;100.00;103362.56;10329889;28;20038;-66
2022/01/13 20:21:21;;;;;;;0.03;0.03;;;;;;;5.83;100.00;103360.00;10330686;28;20401;-66
2022/01/13 20:26:22;;;;;;;0.00;0.00;;;;;;;5.82;100.00;103356.50;10347597;28;20033;-66
2022/01/13 20:31:22;;;;;;;0.00;0.00;;;;;;;5.80;100.00;103358.34;10342222;28;20462;-66
2022/01/13 20:36:23;;;;;;;0.00;0.00;;;;;;;5.81;100.00;103352.13;10346974;28;20077;-66
2022/01/13 20:41:25;;;;;;;0.00;0.00;;;;;;;5.80;100.00;103353.06;10337706;28;20100;-66
2022/01/13 20:46:26;;;;;;;0.00;0.00;;;;;;;5.80;100.00;103361.00;10328863;28;20029;-66
2022/01/13 20:51:27;;;;;;;0.00;0.00;;;;;;;5.80;100.00;103346.91;10325447;28;20478;-67
2022/01/13 20:56:28;;;;;;;0.00;0.00;;;;;;;5.79;100.00;103346.06;10326625;28;20023;-66
2022/01/13 21:01:28;;;;;;;0.00;0.00;;;;;;;5.77;100.00;103332.03;10327176;28;20022;-66
2022/01/13 21:06:28;;;;;;;0.00;0.00;;;;;;;5.78;100.00;103341.66;10350044;28;20014;-66
2022/01/13 21:11:29;;;;;;;0.00;0.00;;;;;;;5.77;100.00;103352.34;10340488;28;20022;-67
2022/01/13 21:16:30;;;;;;;0.00;0.00;;;;;;;5.75;100.00;103340.94;10329474;28;20025;-66
2022/01/13 21:21:31;;;;;;;0.00;0.00;;;;;;;5.75;100.00;103341.81;10341918;28;20211;-66
2022/01/13 21:31:35;;;;;;;0.00;0.00;;;;;;;5.74;100.00;103339.25;10382781;28;20038;-67
2022/01/13 21:36:36;;;;;;;0.00;0.00;;;;;;;5.74;100.00;103348.03;10407987;28;20072;-68
2022/01/13 21:41:37;;;;;;;0.00;0.00;;;;;;;5.76;100.00;103342.66;10407913;28;20070;-68
2022/01/13 21:46:37;;;;;;;0.00;0.00;;;;;;;5.76;100.00;103343.53;10407937;28;20812;-68
2022/01/13 21:51:38;;;;;;;0.00;0.00;;;;;;;5.76;100.00;103347.94;10407853;28;20021;-67
2022/01/13 21:56:38;;;;;;;0.00;0.00;;;;;;;5.74;100.00;103350.69;10406738;28;20018;-68
2022/01/13 22:01:38;;;;;;;0.00;0.00;;;;;;;5.76;100.00;103348.84;10404603;28;20072;-67
2022/01/13 22:06:39;;;;;;;0.00;0.00;;;;;;;5.76;100.00;103342.66;10407838;28;20550;-68
2022/01/13 22:11:39;;;;;;;0.00;0.00;;;;;;;5.75;100.00;103348.88;10410589;28;20026;-68
2022/01/13 22:16:40;;;;;;;0.00;0.00;;;;;;;5.74;100.00;103345.38;10415616;28;20040;-67
2022/01/13 22:21:41;;;;;;;0.00;0.00;;;;;;;5.74;100.00;103342.75;10415070;28;20036;-68
2022/01/13 22:26:41;;;;;;;0.00;0.00;;;;;;;5.74;100.00;103344.53;10414716;28;20100;-68
2022/01/13 22:31:42;;;;;;;0.00;0.00;;;;;;;5.72;100.00;103336.66;10412344;28;20040;-67
2022/01/13 22:36:42;;;;;;;0.00;0.00;;;;;;;5.72;100.00;103331.38;10414469;28;20038;-68
2022/01/13 22:41:44;;;;;;;0.00;0.00;;;;;;;5.71;100.00;103319.06;10414248;28;20052;-67
2022/01/13 22:46:44;;;;;;;0.00;0.00;;;;;;;5.72;100.00;103312.84;10414529;28;20084;-67
2022/01/13 22:51:45;;;;;;;0.00;0.00;;;;;;;5.71;100.00;103311.16;10410066;28;20021;-67
2022/01/13 22:56:46;;;;;;;0.00;0.00;;;;;;;5.71;100.00;103297.06;10414144;28;20032;-67
2022/01/13 23:01:46;;;;;;;0.00;0.00;;;;;;;5.70;100.00;103300.63;10413176;28;20373;-67
2022/01/13 23:06:46;;;;;;;0.10;0.10;;;;;;;5.71;100.00;103283.84;10415460;28;20663;-67
2022/01/13 23:11:47;;;;;;;0.00;0.00;;;;;;;5.70;100.00;103287.41;10413134;28;20675;-67
2022/01/13 23:22:16;;;;;;;0.00;0.00;;;;;;;5.71;100.00;103281.19;10412448;28;20025;-67
2022/01/13 23:27:19;;;;;;;0.00;0.00;;;;;;;5.70;100.00;103272.38;10411074;28;20017;-67
2022/01/13 23:32:20;;;;;;;0.10;0.10;;;;;;;5.70;100.00;103280.31;10409395;28;20025;-67
2022/01/13 23:37:20;;;;;;;0.00;0.00;;;;;;;5.68;100.00;103292.78;10414128;28;20108;-67
2022/01/13 23:42:21;;;;;;;0.03;0.03;;;;;;;5.68;100.00;103290.13;10411135;28;20271;-68
2022/01/13 23:47:21;;;;;;;0.00;0.00;;;;;;;5.68;100.00;103279.53;10411926;28;20018;-68
2022/01/13 23:52:26;;;;;;;0.00;0.00;;;;;;;5.69;100.00;103262.75;10412015;28;20104;-68